createdAt,value
2022-10-18T00:02:14.050Z,12.82
2022-10-18T00:04:40.605Z,14.50
2022-10-18T00:07:07.642Z,16.33
2022-10-18T00:09:34.271Z,16.50
2022-10-18T00:12:00.899Z,13.73
2022-10-18T00:14:27.489Z,17.92
2022-10-18T00:16:54.220Z,18.25
2022-10-18T00:19:20.841Z,19.63
2022-10-18T00:21:51.434Z,15.77
2022-10-18T00:24:18.128Z,17.85
2022-10-18T00:26:44.733Z,17.08
2022-10-18T00:29:14.884Z,16.95
2022-10-18T00:31:43.435Z,19.13
2022-10-18T00:34:12.981Z,18.15
2022-10-18T00:36:39.975Z,18.08
2022-10-18T00:39:07.854Z,17.73
2022-10-18T00:41:36.458Z,16.63
2022-10-18T00:44:13.597Z,16.00
2022-10-18T00:46:42.864Z,16.00
2022-10-18T00:49:35.619Z,17.35
2022-10-18T00:52:11.003Z,15.75
2022-10-18T00:54:40.771Z,15.48
2022-10-18T00:57:08.206Z,14.55
2022-10-18T00:59:36.061Z,14.07
2022-10-18T01:02:03.506Z,15.10
2022-10-18T01:04:30.211Z,15.63
2022-10-18T01:07:27.778Z,14.77
2022-10-18T01:10:26.968Z,15.97
2022-10-18T01:13:25.971Z,16.75
2022-10-18T01:16:01.995Z,19.13
2022-10-18T01:18:48.675Z,18.45
2022-10-18T01:21:40.684Z,18.85
2022-10-18T01:24:41.299Z,20.33
2022-10-18T01:27:40.615Z,18.73
2022-10-18T01:30:37.930Z,18.10
2022-10-18T01:33:10.294Z,17.33
2022-10-18T01:35:45.591Z,16.67
2022-10-18T01:38:17.946Z,17.85
2022-10-18T01:40:47.869Z,19.13
2022-10-18T01:43:16.633Z,18.02
2022-10-18T01:48:11.703Z,16.95
2022-10-18T01:50:38.332Z,18.75
2022-10-18T01:53:04.859Z,17.70
2022-10-18T01:55:42.678Z,19.52
2022-10-18T01:58:29.513Z,17.42
2022-10-18T02:01:08.603Z,18.77
2022-10-18T02:03:40.925Z,12.60
2022-10-18T02:06:22.996Z,14.25
2022-10-18T02:08:56.841Z,14.65
2022-10-18T02:11:23.665Z,14.32
2022-10-18T02:13:53.363Z,17.10
2022-10-18T02:16:40.571Z,14.38
2022-10-18T02:19:20.786Z,15.20
2022-10-18T02:21:50.055Z,15.70
2022-10-18T02:24:19.530Z,15.57
2022-10-18T02:26:46.135Z,17.67
2022-10-18T02:29:13.134Z,14.50
2022-10-18T02:31:53.010Z,15.93
2022-10-18T02:34:27.695Z,13.55
2022-10-18T02:36:59.000Z,16.58
2022-10-18T02:39:32.846Z,16.33
2022-10-18T02:42:00.033Z,15.43
2022-10-18T02:44:26.912Z,17.33
2022-10-18T02:46:53.743Z,16.50
2022-10-18T02:49:20.382Z,16.90
2022-10-18T02:51:46.958Z,14.27
2022-10-18T02:54:13.568Z,13.65
2022-10-18T02:56:40.278Z,11.65
2022-10-18T02:59:07.486Z,13.15
2022-10-18T03:01:36.301Z,14.15
2022-10-18T03:04:03.890Z,12.48
2022-10-18T03:06:30.797Z,12.70
2022-10-18T03:08:57.621Z,14.07
2022-10-18T03:11:24.323Z,13.68
2022-10-18T03:13:51.142Z,13.70
2022-10-18T03:16:17.758Z,14.07
2022-10-18T03:18:44.461Z,14.88
2022-10-18T03:21:11.022Z,14.45
2022-10-18T03:23:37.685Z,15.15
2022-10-18T03:26:04.492Z,14.98
2022-10-18T03:28:31.326Z,14.88
2022-10-18T03:31:02.506Z,17.23
2022-10-18T03:33:29.235Z,15.77
2022-10-18T03:35:55.897Z,14.30
2022-10-18T03:38:22.482Z,14.15
2022-10-18T03:40:49.131Z,14.38
2022-10-18T03:43:15.802Z,17.50
2022-10-18T03:45:42.653Z,17.42
2022-10-18T03:48:09.175Z,14.10
2022-10-18T03:50:35.797Z,15.38
2022-10-18T03:53:02.543Z,16.30
2022-10-18T03:55:29.215Z,16.05
2022-10-18T03:57:55.801Z,14.95
2022-10-18T04:00:22.921Z,17.13
2022-10-18T04:02:52.069Z,18.25
2022-10-18T04:05:24.408Z,18.20
2022-10-18T04:07:51.007Z,17.80
2022-10-18T04:10:18.900Z,18.35
2022-10-18T04:12:45.573Z,17.40
2022-10-18T04:15:12.388Z,19.08
2022-10-18T04:17:38.972Z,20.02
2022-10-18T04:20:06.749Z,19.10
2022-10-18T04:22:33.373Z,20.13
2022-10-18T04:24:59.924Z,19.15
2022-10-18T04:27:26.563Z,21.95
2022-10-18T04:29:53.190Z,19.23
2022-10-18T04:32:19.748Z,20.20
2022-10-18T04:34:46.363Z,18.42
2022-10-18T04:37:12.958Z,20.20
2022-10-18T04:39:39.522Z,19.80
2022-10-18T04:42:06.107Z,18.00
2022-10-18T04:44:32.663Z,19.13
2022-10-18T04:46:59.262Z,17.73
2022-10-18T04:49:25.842Z,20.90
2022-10-18T04:51:52.429Z,20.15
2022-10-18T04:54:19.016Z,18.98
2022-10-18T04:56:45.597Z,18.67
2022-10-18T04:59:12.700Z,17.83
2022-10-18T05:01:39.471Z,18.40
2022-10-18T05:04:06.113Z,18.90
2022-10-18T05:06:32.649Z,19.00
2022-10-18T05:08:59.210Z,18.88
2022-10-18T05:11:25.830Z,20.02
2022-10-18T05:13:52.413Z,17.08
2022-10-18T05:16:19.019Z,15.23
2022-10-18T05:18:45.782Z,16.77
2022-10-18T05:21:13.610Z,14.90
2022-10-18T05:23:40.139Z,18.13
2022-10-18T05:26:07.635Z,19.33
2022-10-18T05:28:39.568Z,19.05
2022-10-18T05:31:09.858Z,18.63
2022-10-18T05:33:36.966Z,16.77
2022-10-18T05:36:04.516Z,16.38
2022-10-18T05:38:31.453Z,18.20
2022-10-18T05:40:59.087Z,15.93
2022-10-18T05:43:29.679Z,18.88
2022-10-18T05:45:56.517Z,18.92
2022-10-18T05:48:23.206Z,19.80
2022-10-18T05:50:49.758Z,13.45
2022-10-18T05:53:35.760Z,14.73
2022-10-18T05:56:03.858Z,16.98
2022-10-18T05:58:30.462Z,18.85
2022-10-18T06:01:05.344Z,17.73
2022-10-18T06:03:32.638Z,20.95
2022-10-18T06:06:10.180Z,17.83
2022-10-18T06:08:37.607Z,19.75
2022-10-18T06:11:13.958Z,18.55
2022-10-18T06:13:46.324Z,20.20
2022-10-18T06:16:14.985Z,17.40
2022-10-18T06:18:42.095Z,20.27
2022-10-18T06:21:09.606Z,17.42
2022-10-18T06:23:36.204Z,17.77
2022-10-18T06:26:04.979Z,18.70
2022-10-18T06:30:58.366Z,19.83
2022-10-18T06:33:25.521Z,20.50
2022-10-18T06:36:00.380Z,19.45
2022-10-18T06:38:27.957Z,20.60
2022-10-18T06:40:55.636Z,19.25
2022-10-18T06:43:22.328Z,16.25
2022-10-18T06:45:49.452Z,16.58
2022-10-18T06:48:16.671Z,16.50
2022-10-18T06:50:50.304Z,12.60
2022-10-18T06:53:17.139Z,11.43
2022-10-18T06:55:43.839Z,12.27
2022-10-18T06:58:10.434Z,11.30
2022-10-18T07:00:36.989Z,11.45
2022-10-18T07:03:03.622Z,11.70
2022-10-18T07:07:58.358Z,10.45
2022-10-18T07:10:25.406Z,10.15
2022-10-18T07:12:59.240Z,10.75
2022-10-18T07:15:38.569Z,9.30
2022-10-18T07:18:05.651Z,11.20
2022-10-18T07:20:32.256Z,10.65
2022-10-18T07:22:59.172Z,10.85
2022-10-18T07:25:28.407Z,10.18
2022-10-18T07:27:57.420Z,10.85
2022-10-18T07:30:24.024Z,10.80
2022-10-18T07:32:51.870Z,11.32
2022-10-18T07:35:18.522Z,14.02
2022-10-18T07:37:45.111Z,15.25
2022-10-18T07:40:12.212Z,13.48
2022-10-18T07:42:38.867Z,13.43
2022-10-18T07:45:05.751Z,14.50
2022-10-18T07:47:35.115Z,14.23
2022-10-18T07:50:02.078Z,15.13
2022-10-18T07:52:28.645Z,13.65
2022-10-18T07:54:55.218Z,14.15
2022-10-18T07:57:40.488Z,14.75
2022-10-18T08:00:09.018Z,14.60
2022-10-18T08:02:35.608Z,15.05
2022-10-18T08:05:02.176Z,14.95
2022-10-18T08:07:28.889Z,14.98
2022-10-18T08:09:55.773Z,16.40
2022-10-18T08:12:23.112Z,17.75
2022-10-18T08:14:49.657Z,17.63
2022-10-18T08:17:16.233Z,18.98
2022-10-18T08:19:52.793Z,19.90
2022-10-18T08:22:29.305Z,20.20
2022-10-18T08:24:56.056Z,21.88
2022-10-18T08:27:26.055Z,21.90
2022-10-18T08:29:53.003Z,25.67
2022-10-18T08:32:19.569Z,24.20
2022-10-18T08:34:46.133Z,24.13
2022-10-18T08:37:12.896Z,24.88
2022-10-18T08:39:39.436Z,25.58
2022-10-18T08:42:17.858Z,25.60
2022-10-18T08:44:47.949Z,27.73
2022-10-18T08:47:52.021Z,27.23
2022-10-18T12:03:14.398Z,16.40
2022-10-18T12:05:44.693Z,16.92
2022-10-18T12:08:14.253Z,17.42
2022-10-18T12:11:04.051Z,17.88
2022-10-18T12:13:56.943Z,17.50
2022-10-18T12:16:49.523Z,16.73
2022-10-18T12:19:23.712Z,17.10
2022-10-18T12:21:56.422Z,16.80
2022-10-18T12:24:28.639Z,15.15
2022-10-18T12:26:59.729Z,14.60
2022-10-18T12:29:30.158Z,13.77
2022-10-18T12:32:07.140Z,13.57
2022-10-18T12:34:43.926Z,10.45
2022-10-18T12:37:45.255Z,12.50
2022-10-18T12:40:21.458Z,9.95
2022-10-18T12:42:50.913Z,8.70
2022-10-18T12:45:23.138Z,9.88
2022-10-18T12:47:50.262Z,9.52
2022-10-18T12:50:37.233Z,10.90
2022-10-18T12:53:28.015Z,9.52
2022-10-18T12:55:55.860Z,11.93
2022-10-18T12:58:32.096Z,11.68
2022-10-18T13:01:02.279Z,11.02
2022-10-18T13:03:39.543Z,11.38
2022-10-18T13:06:06.940Z,11.50
2022-10-18T13:08:42.169Z,11.90
2022-10-18T13:11:08.938Z,12.52
2022-10-18T13:14:17.019Z,12.25
2022-10-18T13:17:28.172Z,12.02
2022-10-18T13:20:26.113Z,12.27
2022-10-18T13:23:02.365Z,13.85
2022-10-18T13:25:41.223Z,13.55
2022-10-18T13:28:38.541Z,14.35
2022-10-18T13:31:29.986Z,12.90
2022-10-18T13:34:25.246Z,14.25
2022-10-18T13:37:03.685Z,15.43
2022-10-18T13:39:31.595Z,13.57
2022-10-18T13:41:58.243Z,14.95
2022-10-18T13:44:37.346Z,16.35
2022-10-18T13:47:04.003Z,17.83
2022-10-18T13:49:48.332Z,17.33
2022-10-18T13:52:20.809Z,17.35
2022-10-18T13:55:14.965Z,17.27
2022-10-18T13:57:47.360Z,17.35
2022-10-18T14:00:35.679Z,18.80
2022-10-18T14:03:37.525Z,15.85
2022-10-18T14:06:06.792Z,15.88
2022-10-18T14:09:25.591Z,15.88
2022-10-18T14:12:19.092Z,17.40
2022-10-18T14:15:08.435Z,16.92
2022-10-18T14:17:46.510Z,15.02
2022-10-18T14:23:18.842Z,16.85
2022-10-18T14:25:45.919Z,17.88
2022-10-18T14:28:16.674Z,18.27
2022-10-18T14:31:06.324Z,16.80
2022-10-18T14:33:32.919Z,19.00
2022-10-18T14:36:03.874Z,17.98
2022-10-18T14:38:30.926Z,19.33
2022-10-18T14:41:22.298Z,14.63
2022-10-18T14:43:49.959Z,15.43
2022-10-18T14:46:28.969Z,18.40
2022-10-18T14:49:04.328Z,17.92
2022-10-18T14:51:35.475Z,17.33
2022-10-18T14:54:02.887Z,19.08
2022-10-18T14:56:31.966Z,18.77
2022-10-18T14:59:02.143Z,16.70
2022-10-18T15:01:32.064Z,19.35
2022-10-18T15:04:11.688Z,18.92
2022-10-18T15:06:43.802Z,20.50
2022-10-18T15:09:12.603Z,18.25
2022-10-18T15:11:41.465Z,15.93
2022-10-18T15:14:14.434Z,15.50
2022-10-18T15:16:41.406Z,17.83
2022-10-18T15:19:14.140Z,19.40
2022-10-18T15:25:06.057Z,18.30
2022-10-18T15:27:37.011Z,19.98
2022-10-18T15:30:22.854Z,17.50
2022-10-18T15:32:57.982Z,17.38
2022-10-18T15:35:32.886Z,19.45
2022-10-18T15:38:04.752Z,21.42
2022-10-18T15:40:35.268Z,16.33
2022-10-18T15:43:06.037Z,18.73
2022-10-18T15:45:45.452Z,20.45
2022-10-18T15:48:15.024Z,16.52
2022-10-18T15:50:44.258Z,16.25
2022-10-18T15:53:23.076Z,16.67
2022-10-18T15:56:08.152Z,15.32
2022-10-18T15:58:46.415Z,19.98
2022-10-18T16:04:01.207Z,18.02
2022-10-18T16:06:27.873Z,19.35
2022-10-18T16:08:54.585Z,16.70
2022-10-18T16:11:25.848Z,18.05
2022-10-18T16:13:55.245Z,14.30
2022-10-18T16:16:27.366Z,15.93
2022-10-18T16:18:54.568Z,17.38
2022-10-18T16:21:26.399Z,16.13
2022-10-18T16:23:53.437Z,15.15
2022-10-18T16:26:21.286Z,15.52
2022-10-18T16:28:48.615Z,21.42
2022-10-18T16:31:21.749Z,18.05
2022-10-18T16:33:49.449Z,16.52
2022-10-18T16:36:20.399Z,17.70
2022-10-18T16:38:48.051Z,17.80
2022-10-18T16:41:15.936Z,24.30
2022-10-18T16:43:44.447Z,20.90
2022-10-18T16:48:44.329Z,16.40
2022-10-18T16:51:12.935Z,19.58
2022-10-18T16:53:39.517Z,19.90
2022-10-18T16:56:13.433Z,21.63
2022-10-18T16:58:40.114Z,19.83
2022-10-18T17:01:08.963Z,22.50
2022-10-18T17:03:36.167Z,19.17
2022-10-18T17:06:03.151Z,18.45
2022-10-18T17:08:29.785Z,20.88
2022-10-18T17:10:58.699Z,20.92
2022-10-18T17:13:26.446Z,18.70
2022-10-18T17:15:53.713Z,20.43
2022-10-18T17:18:28.044Z,19.67
2022-10-18T17:20:55.272Z,20.77
2022-10-18T17:23:22.045Z,21.95
2022-10-18T17:26:04.718Z,20.27
2022-10-18T17:28:33.851Z,21.35
2022-10-18T17:31:00.456Z,19.35
2022-10-18T17:33:27.017Z,21.50
2022-10-18T17:35:53.730Z,20.92
2022-10-18T17:38:20.301Z,19.20
2022-10-18T17:40:46.846Z,19.27
2022-10-18T17:43:13.957Z,20.15
2022-10-18T17:45:48.979Z,22.90
2022-10-18T17:48:15.535Z,23.45
2022-10-18T17:50:42.394Z,20.92
2022-10-18T17:53:10.753Z,24.17
2022-10-18T17:55:37.417Z,19.63
2022-10-18T17:58:04.028Z,19.88
2022-10-18T18:00:30.682Z,21.58
2022-10-18T18:03:00.744Z,20.85
2022-10-18T18:05:32.957Z,21.23
2022-10-18T18:08:03.750Z,20.38
2022-10-18T18:10:33.136Z,23.35
2022-10-18T18:13:00.209Z,20.00
2022-10-18T18:15:26.908Z,21.63
2022-10-18T18:17:57.094Z,20.73
2022-10-18T18:20:24.803Z,22.27
2022-10-18T18:22:51.958Z,22.73
2022-10-18T18:25:18.710Z,20.40
2022-10-18T18:27:45.320Z,17.90
2022-10-18T18:30:12.117Z,22.60
2022-10-18T18:32:38.772Z,20.20
2022-10-18T18:35:05.723Z,19.00
2022-10-18T18:37:32.419Z,19.05
2022-10-18T18:39:58.951Z,20.17
2022-10-18T18:42:25.470Z,20.17
2022-10-18T18:44:52.047Z,19.50
2022-10-18T18:47:21.528Z,23.48
2022-10-18T18:49:48.561Z,20.88
2022-10-18T18:52:15.224Z,19.08
2022-10-18T18:54:41.767Z,17.30
2022-10-18T18:57:08.625Z,18.77
2022-10-18T18:59:35.364Z,21.15
2022-10-18T19:02:01.956Z,18.70
2022-10-18T19:04:29.288Z,23.23
2022-10-18T19:06:55.924Z,19.13
2022-10-18T19:09:23.039Z,21.63
2022-10-18T19:11:55.413Z,21.33
2022-10-18T19:14:24.175Z,21.85
2022-10-18T19:16:53.720Z,19.30
2022-10-18T19:21:51.739Z,19.37
2022-10-18T19:24:19.980Z,19.13
2022-10-18T19:26:55.897Z,20.50
2022-10-18T19:29:34.894Z,20.98
2022-10-18T19:32:04.842Z,17.95
2022-10-18T19:34:32.497Z,20.40
2022-10-18T19:36:59.252Z,19.65
2022-10-18T19:39:28.211Z,23.58
2022-10-18T19:41:57.677Z,19.42
2022-10-18T19:44:27.752Z,19.77
2022-10-18T19:46:55.195Z,22.85
2022-10-18T19:49:22.208Z,18.83
2022-10-18T19:51:49.237Z,19.98
2022-10-18T19:54:16.529Z,19.40
2022-10-18T19:56:44.160Z,18.80
2022-10-18T19:59:12.077Z,17.63
2022-10-18T20:01:39.427Z,21.87
2022-10-18T20:04:08.363Z,19.20
2022-10-18T20:06:41.760Z,20.77
2022-10-18T20:09:12.393Z,21.05
2022-10-18T20:11:44.554Z,18.60
2022-10-18T20:14:11.635Z,17.25
2022-10-18T20:16:41.399Z,21.98
2022-10-18T20:19:08.132Z,19.52
2022-10-18T20:21:36.325Z,17.50
2022-10-18T20:24:07.288Z,18.48
2022-10-18T20:26:35.888Z,16.67
2022-10-18T20:29:02.632Z,20.50
2022-10-18T20:31:38.918Z,20.80
2022-10-18T20:34:12.117Z,22.48
2022-10-18T20:36:39.612Z,18.95
2022-10-18T20:39:06.799Z,18.95
2022-10-18T20:41:37.994Z,21.00
2022-10-18T20:44:10.707Z,19.88
2022-10-18T20:46:39.002Z,18.77
2022-10-18T20:49:07.857Z,18.10
2022-10-18T20:51:35.199Z,20.88
2022-10-18T20:56:34.229Z,17.50
2022-10-18T20:59:01.529Z,19.08
2022-10-18T21:01:30.693Z,19.30
2022-10-18T21:04:00.265Z,18.80
2022-10-18T21:06:28.206Z,18.02
2022-10-18T21:08:57.871Z,18.27
2022-10-18T21:11:25.179Z,17.75
2022-10-18T21:13:58.911Z,18.75
2022-10-18T21:16:26.545Z,17.90
2022-10-18T21:18:53.677Z,16.98
2022-10-18T21:21:23.111Z,17.83
2022-10-18T21:23:50.514Z,18.05
2022-10-18T21:26:26.023Z,17.65
2022-10-18T21:28:54.517Z,15.98
2022-10-18T21:31:23.917Z,17.55
2022-10-18T21:33:56.283Z,18.65
2022-10-18T21:36:24.017Z,19.13
2022-10-18T21:38:53.755Z,21.05
2022-10-18T21:41:22.620Z,17.33
2022-10-18T21:43:55.373Z,19.58
2022-10-18T21:46:23.912Z,19.23
2022-10-18T21:48:52.681Z,19.42
2022-10-18T21:53:49.832Z,16.02
2022-10-18T21:56:21.376Z,18.65
2022-10-18T21:58:48.723Z,18.83
2022-10-18T22:01:32.139Z,18.23
2022-10-18T22:04:04.358Z,19.80
2022-10-18T22:06:40.559Z,19.45
2022-10-18T22:09:08.437Z,18.08
2022-10-18T22:11:39.309Z,20.23
2022-10-18T22:14:06.172Z,19.90
2022-10-18T22:16:32.868Z,17.00
2022-10-18T22:19:01.993Z,16.23
2022-10-18T22:21:29.119Z,20.10
2022-10-18T22:23:57.337Z,18.38
2022-10-18T22:26:27.660Z,17.02
2022-10-18T22:29:00.243Z,17.15
2022-10-18T22:31:39.195Z,15.15
2022-10-18T22:34:29.806Z,20.73
2022-10-18T22:36:56.776Z,18.85
2022-10-18T22:39:24.789Z,17.67
2022-10-18T22:41:55.820Z,18.65
2022-10-18T22:44:23.072Z,16.50
2022-10-18T22:46:49.681Z,18.38
2022-10-18T22:49:16.360Z,17.92
2022-10-18T22:51:43.203Z,18.20
2022-10-18T22:54:10.276Z,19.40
2022-10-18T22:56:36.949Z,18.75
2022-10-18T22:59:09.688Z,20.30
2022-10-18T23:01:36.496Z,20.63
2022-10-18T23:04:03.254Z,21.25
2022-10-18T23:06:32.931Z,20.02
2022-10-18T23:09:02.429Z,16.95
2022-10-18T23:11:29.517Z,19.33
2022-10-18T23:13:56.250Z,16.25
2022-10-18T23:16:25.809Z,19.98
2022-10-18T23:18:55.266Z,18.45
2022-10-18T23:21:24.346Z,18.70
2022-10-18T23:23:53.005Z,19.70
2022-10-18T23:26:22.657Z,18.90
2022-10-18T23:28:50.793Z,18.05
2022-10-18T23:31:21.541Z,20.73
2022-10-18T23:33:51.041Z,20.80
2022-10-18T23:36:18.331Z,19.33
2022-10-18T23:38:45.264Z,19.52
2022-10-18T23:41:13.615Z,18.13
2022-10-18T23:43:40.731Z,18.60
2022-10-18T23:46:07.891Z,20.00
2022-10-18T23:48:37.947Z,20.52
2022-10-18T23:51:05.333Z,19.35
2022-10-18T23:53:32.351Z,19.73
2022-10-18T23:56:07.502Z,20.77
2022-10-18T23:58:35.213Z,18.23
